Time;durP1;ratioP1;P1;durP2;ratioP2;P2;SDS_P1;SDS_P2;PMS_P1;PMS_P2;Temp;Humidity;BMP_temperature;BMP_pressure;BME280_temperature;BME280_humidity;BME280_pressure;Samples;Min_cycle;Max_cycle;Signal;HPM_P1;HPM_P2
2022/09/16 00:02:20;;;;;;;0.60;0.60;;;10.80;99.90;;;;;;5092895;28;20554;-68
2022/09/16 00:04:45;;;;;;;0.60;0.60;;;10.70;99.90;;;;;;5092949;28;20208;-67
2022/09/16 00:07:11;;;;;;;0.50;0.50;;;10.70;99.90;;;;;;5092922;28;20190;-68
2022/09/16 00:09:37;;;;;;;0.60;0.60;;;10.60;99.90;;;;;;5074397;28;20189;-66
2022/09/16 00:12:04;;;;;;;0.55;0.55;;;10.60;99.90;;;;;;5072621;28;20189;-67
2022/09/16 00:14:30;;;;;;;0.60;0.60;;;10.50;99.90;;;;;;5072079;28;20315;-67
2022/09/16 00:16:55;;;;;;;0.50;0.50;;;10.50;99.90;;;;;;5072537;28;20285;-67
2022/09/16 00:19:21;;;;;;;0.50;0.50;;;10.50;99.90;;;;;;5072384;28;20207;-67
2022/09/16 00:21:48;;;;;;;0.50;0.50;;;10.50;99.90;;;;;;5072385;28;20188;-67
2022/09/16 00:24:15;;;;;;;0.60;0.60;;;10.40;99.90;;;;;;5071157;28;20262;-66
2022/09/16 00:26:41;;;;;;;0.60;0.60;;;10.30;99.90;;;;;;5072284;28;20192;-66
2022/09/16 00:29:07;;;;;;;0.60;0.60;;;10.30;99.90;;;;;;5072236;28;20420;-67
2022/09/16 00:31:33;;;;;;;0.60;0.60;;;10.30;99.90;;;;;;5072065;28;20275;-67
2022/09/16 00:33:59;;;;;;;0.50;0.50;;;10.30;99.90;;;;;;5072243;28;20653;-67
2022/09/16 00:36:25;;;;;;;0.60;0.60;;;10.30;99.90;;;;;;5072075;28;20718;-67
2022/09/16 00:38:52;;;;;;;0.60;0.60;;;10.30;99.90;;;;;;5071500;28;20287;-67
2022/09/16 00:41:21;;;;;;;0.50;0.50;;;10.30;99.90;;;;;;5072054;28;20203;-67
2022/09/16 00:43:52;;;;;;;0.82;0.82;;;10.30;99.90;;;;;;5071913;28;20652;-66
2022/09/16 00:46:42;;;;;;;0.60;0.60;;;10.30;99.90;;;;;;5071762;28;20189;-67
2022/09/16 00:49:17;;;;;;;0.50;0.50;;;10.20;99.90;;;;;;5071932;28;20595;-66
2022/09/16 00:51:46;;;;;;;0.57;0.57;;;10.20;99.90;;;;;;5071780;28;20200;-67
2022/09/16 00:54:13;;;;;;;0.50;0.50;;;10.20;99.90;;;;;;5071544;28;20668;-67
2022/09/16 00:56:42;;;;;;;0.50;0.50;;;10.10;99.90;;;;;;5071587;28;20200;-66
2022/09/16 00:59:10;;;;;;;0.50;0.50;;;10.10;99.90;;;;;;5071656;28;20246;-66
2022/09/16 01:01:37;;;;;;;0.60;0.60;;;10.10;99.90;;;;;;5071454;28;20266;-66
2022/09/16 01:04:12;;;;;;;0.50;0.50;;;10.00;99.90;;;;;;5071679;28;20208;-65
2022/09/16 01:06:38;;;;;;;0.50;0.50;;;9.90;99.90;;;;;;5070814;28;21346;-66
2022/09/16 01:09:05;;;;;;;0.55;0.55;;;9.90;99.90;;;;;;5071683;28;20567;-66
2022/09/16 01:11:31;;;;;;;0.63;0.63;;;9.90;99.90;;;;;;5071873;28;20455;-66
2022/09/16 01:14:51;;;;;;;0.52;0.52;;;9.80;99.90;;;;;;5071440;28;20597;-66
2022/09/16 01:16:51;;;;;;;0.60;0.60;;;9.80;99.90;;;;;;5071263;28;20666;-67
2022/09/16 01:19:42;;;;;;;0.60;0.60;;;9.70;99.90;;;;;;5071703;28;20212;-66
2022/09/16 01:22:42;;;;;;;0.60;0.60;;;9.70;99.90;;;;;;5071494;28;20193;-66
2022/09/16 01:25:26;;;;;;;0.65;0.65;;;9.60;99.90;;;;;;5069837;28;20248;-66
2022/09/16 01:28:23;;;;;;;0.60;0.60;;;9.60;99.90;;;;;;5071436;28;20189;-66
2022/09/16 01:30:55;;;;;;;0.52;0.52;;;9.50;99.90;;;;;;5071433;28;20193;-67
2022/09/16 01:33:32;;;;;;;0.60;0.60;;;9.50;99.90;;;;;;5071188;28;20678;-67
2022/09/16 01:36:02;;;;;;;0.60;0.60;;;9.60;99.90;;;;;;5071252;28;20208;-67
2022/09/16 01:38:40;;;;;;;0.60;0.60;;;9.70;99.90;;;;;;5053117;28;20208;-66
2022/09/16 01:41:24;;;;;;;0.50;0.50;;;9.50;99.90;;;;;;5071279;28;20567;-66
2022/09/16 01:44:00;;;;;;;0.50;0.50;;;9.50;99.90;;;;;;5051124;28;20221;-66
2022/09/16 01:46:40;;;;;;;0.60;0.60;;;9.60;99.90;;;;;;5033104;28;20686;-66
2022/09/16 01:49:19;;;;;;;0.60;0.60;;;9.70;99.90;;;;;;5051126;28;20217;-66
2022/09/16 01:51:53;;;;;;;0.60;0.60;;;9.60;99.90;;;;;;5051121;28;20189;-66
2022/09/16 01:54:30;;;;;;;0.60;0.60;;;9.60;99.90;;;;;;5044265;28;20249;-67
2022/09/16 01:57:06;;;;;;;0.60;0.60;;;9.70;99.90;;;;;;5071769;28;20199;-67
2022/09/16 01:59:59;;;;;;;0.60;0.60;;;9.70;99.90;;;;;;5075225;28;20188;-66
2022/09/16 02:03:06;;;;;;;0.60;0.60;;;9.60;99.90;;;;;;5073647;28;20729;-67
2022/09/16 02:05:47;;;;;;;0.60;0.60;;;9.60;99.90;;;;;;5033193;28;20301;-66
2022/09/16 02:08:19;;;;;;;0.68;0.68;;;9.60;99.90;;;;;;5075430;28;20188;-66
2022/09/16 02:10:54;;;;;;;0.73;0.73;;;9.70;99.90;;;;;;5075221;28;20195;-67
2022/09/16 02:13:27;;;;;;;0.60;0.60;;;9.80;99.90;;;;;;5056746;28;20313;-67
2022/09/16 02:15:58;;;;;;;0.60;0.60;;;9.80;99.90;;;;;;5075125;28;20197;-67
2022/09/16 02:18:29;;;;;;;0.60;0.60;;;9.70;99.90;;;;;;5074830;28;20220;-67
2022/09/16 02:20:57;;;;;;;0.60;0.60;;;9.70;99.90;;;;;;5074797;28;20655;-66
2022/09/16 02:23:27;;;;;;;0.50;0.50;;;9.60;99.90;;;;;;5056659;28;20219;-67
2022/09/16 02:25:55;;;;;;;0.60;0.60;;;9.70;99.90;;;;;;5074801;28;20715;-67
2022/09/16 02:28:29;;;;;;;0.52;0.52;;;9.70;99.90;;;;;;5074542;28;20192;-67
2022/09/16 02:30:58;;;;;;;0.60;0.60;;;9.70;99.90;;;;;;5074609;28;20208;-67
2022/09/16 02:33:30;;;;;;;0.60;0.60;;;9.70;99.90;;;;;;5056451;28;20659;-67
2022/09/16 02:35:57;;;;;;;0.60;0.60;;;9.70;99.90;;;;;;5074682;28;20284;-68
2022/09/16 02:38:29;;;;;;;0.60;0.60;;;9.80;99.90;;;;;;5074434;28;20553;-67
2022/09/16 02:40:58;;;;;;;0.60;0.60;;;9.80;99.90;;;;;;5056481;28;20605;-66
2022/09/16 02:43:25;;;;;;;0.50;0.50;;;9.90;99.90;;;;;;5074286;28;20227;-67
2022/09/16 02:46:14;;;;;;;0.60;0.60;;;9.90;99.90;;;;;;5074200;28;20571;-67
2022/09/16 02:48:39;;;;;;;0.50;0.50;;;9.80;99.90;;;;;;5074237;28;20223;-67
2022/09/16 02:51:21;;;;;;;0.60;0.60;;;9.70;99.90;;;;;;5056296;28;20193;-67
2022/09/16 02:53:57;;;;;;;0.60;0.60;;;9.70;99.90;;;;;;5068982;28;20597;-67
2022/09/16 02:56:28;;;;;;;0.63;0.63;;;9.60;99.90;;;;;;5072316;28;20288;-66
2022/09/16 02:58:54;;;;;;;0.50;0.50;;;9.60;99.90;;;;;;5073808;28;20655;-66
2022/09/16 03:01:21;;;;;;;0.70;0.70;;;9.60;99.90;;;;;;5064707;28;20243;-67
2022/09/16 03:03:47;;;;;;;0.60;0.60;;;9.60;99.90;;;;;;5062573;28;20186;-67
2022/09/16 03:06:27;;;;;;;0.60;0.60;;;9.60;99.90;;;;;;5053992;28;20651;-66
2022/09/16 03:08:57;;;;;;;0.50;0.50;;;9.60;99.90;;;;;;5052784;28;20247;-67
2022/09/16 03:11:37;;;;;;;0.60;0.60;;;9.60;99.90;;;;;;5053684;28;20564;-67
2022/09/16 03:14:36;;;;;;;0.60;0.60;;;9.50;99.90;;;;;;5039657;28;20685;-67
2022/09/16 03:17:19;;;;;;;0.60;0.60;;;9.50;99.90;;;;;;5000995;28;20744;-67
2022/09/16 03:19:56;;;;;;;0.70;0.70;;;9.40;99.90;;;;;;5033634;28;20614;-67
2022/09/16 03:22:28;;;;;;;0.60;0.60;;;9.40;99.90;;;;;;5033551;28;20425;-67
2022/09/16 03:25:14;;;;;;;0.60;0.60;;;9.40;99.90;;;;;;5033496;28;20699;-66
2022/09/16 03:27:51;;;;;;;0.60;0.60;;;9.30;99.90;;;;;;5039494;28;20205;-67
2022/09/16 03:30:17;;;;;;;0.60;0.60;;;9.30;99.90;;;;;;5068860;28;20722;-67
2022/09/16 03:32:56;;;;;;;0.60;0.60;;;9.20;99.90;;;;;;5053180;28;20190;-67
2022/09/16 03:35:37;;;;;;;0.60;0.60;;;9.20;99.90;;;;;;5039276;28;20196;-67
2022/09/16 03:38:05;;;;;;;0.60;0.60;;;9.20;99.90;;;;;;5073409;28;20253;-67
2022/09/16 03:40:33;;;;;;;0.60;0.60;;;9.20;99.90;;;;;;5073142;28;20197;-67
2022/09/16 03:42:58;;;;;;;0.60;0.60;;;9.30;99.90;;;;;;5073257;28;20217;-67
2022/09/16 03:45:24;;;;;;;0.60;0.60;;;9.30;99.90;;;;;;5072920;28;20256;-67
2022/09/16 03:47:51;;;;;;;0.60;0.60;;;9.30;99.90;;;;;;5073221;28;20644;-67
2022/09/16 03:50:19;;;;;;;0.47;0.47;;;9.20;99.90;;;;;;5073233;28;20272;-66
2022/09/16 03:52:45;;;;;;;0.52;0.52;;;9.20;99.90;;;;;;5073303;28;20346;-67
2022/09/16 03:55:11;;;;;;;0.60;0.60;;;9.10;99.90;;;;;;5053923;28;20288;-67
2022/09/16 03:57:37;;;;;;;0.60;0.60;;;9.00;99.90;;;;;;5052911;28;20699;-66
2022/09/16 04:00:05;;;;;;;0.50;0.50;;;9.00;99.90;;;;;;5053084;28;20276;-69
2022/09/16 04:02:31;;;;;;;0.60;0.60;;;8.90;99.90;;;;;;5052752;28;20277;-66
2022/09/16 04:04:56;;;;;;;0.60;0.60;;;8.90;99.90;;;;;;5052822;28;20296;-67
2022/09/16 04:07:22;;;;;;;0.60;0.60;;;9.00;99.90;;;;;;5034732;28;20563;-67
2022/09/16 04:09:47;;;;;;;0.52;0.52;;;8.90;99.90;;;;;;5034937;28;20190;-67
2022/09/16 04:12:14;;;;;;;0.60;0.60;;;8.80;99.90;;;;;;5052371;28;20197;-67
2022/09/16 04:14:40;;;;;;;0.60;0.60;;;8.80;99.90;;;;;;5071506;28;20229;-68
2022/09/16 04:17:05;;;;;;;0.60;0.60;;;8.80;99.90;;;;;;5072552;28;20200;-68
2022/09/16 04:19:31;;;;;;;0.55;0.55;;;8.80;99.90;;;;;;5054239;28;20236;-68
2022/09/16 04:21:57;;;;;;;0.60;0.60;;;8.80;99.90;;;;;;5072544;28;20196;-67
2022/09/16 04:24:23;;;;;;;0.60;0.60;;;8.80;99.90;;;;;;5054168;28;20262;-67
2022/09/16 04:26:49;;;;;;;0.70;0.70;;;8.80;99.90;;;;;;5072418;28;20195;-67
2022/09/16 04:29:16;;;;;;;0.60;0.60;;;8.70;99.90;;;;;;5072432;28;20531;-68
2022/09/16 04:31:41;;;;;;;0.60;0.60;;;8.60;99.90;;;;;;5071814;28;20281;-67
2022/09/16 04:34:10;;;;;;;0.88;0.63;;;8.60;99.90;;;;;;5072231;28;20272;-68
2022/09/16 04:36:38;;;;;;;0.57;0.57;;;8.50;99.90;;;;;;5054145;28;20559;-67
2022/09/16 04:39:04;;;;;;;0.52;0.52;;;8.50;99.90;;;;;;5072176;28;20193;-67
2022/09/16 04:41:30;;;;;;;0.65;0.65;;;8.50;99.90;;;;;;5072009;28;20656;-67
2022/09/16 04:43:58;;;;;;;0.57;0.57;;;8.50;99.90;;;;;;5054134;28;20192;-68
2022/09/16 04:46:25;;;;;;;0.70;0.70;;;8.50;99.90;;;;;;5071860;28;20224;-67
2022/09/16 04:48:56;;;;;;;0.50;0.50;;;8.60;99.90;;;;;;5071969;28;20204;-67
2022/09/16 04:51:22;;;;;;;0.60;0.60;;;8.50;99.90;;;;;;5071482;28;20246;-68
2022/09/16 04:53:48;;;;;;;0.60;0.60;;;8.50;99.90;;;;;;5064586;28;20193;-67
2022/09/16 04:56:17;;;;;;;0.60;0.60;;;8.40;99.90;;;;;;5051907;28;20190;-67
2022/09/16 04:58:48;;;;;;;0.60;0.60;;;8.50;99.90;;;;;;5051839;28;20196;-67
2022/09/16 05:01:16;;;;;;;0.60;0.60;;;8.50;99.90;;;;;;5051771;28;20205;-67
2022/09/16 05:03:44;;;;;;;0.60;0.60;;;8.50;99.90;;;;;;5051569;28;20948;-68
2022/09/16 05:06:22;;;;;;;0.60;0.60;;;8.60;99.90;;;;;;5051686;28;20241;-68
2022/09/16 05:08:49;;;;;;;0.60;0.60;;;8.60;99.90;;;;;;5051720;28;20590;-68
2022/09/16 05:11:19;;;;;;;0.60;0.60;;;8.60;99.90;;;;;;5051997;28;20205;-68
2022/09/16 05:13:44;;;;;;;0.60;0.60;;;8.70;99.90;;;;;;5051456;28;20278;-67
2022/09/16 05:16:15;;;;;;;0.60;0.60;;;8.70;99.90;;;;;;5051703;28;20197;-67
2022/09/16 05:18:43;;;;;;;0.70;0.70;;;8.70;99.90;;;;;;5033577;28;20201;-68
2022/09/16 05:21:11;;;;;;;0.60;0.60;;;8.70;99.90;;;;;;5067478;28;20239;-68
2022/09/16 05:23:37;;;;;;;0.60;0.60;;;8.70;99.90;;;;;;5071366;28;20278;-68
2022/09/16 05:26:05;;;;;;;0.47;0.47;;;8.80;99.90;;;;;;5071370;28;20228;-68
2022/09/16 05:28:31;;;;;;;0.60;0.60;;;8.90;99.90;;;;;;5071194;28;20185;-67
2022/09/16 05:31:11;;;;;;;0.60;0.60;;;8.90;99.90;;;;;;5071429;28;20193;-67
2022/09/16 05:33:38;;;;;;;0.60;0.60;;;9.00;99.90;;;;;;5071199;28;20184;-67
2022/09/16 05:36:12;;;;;;;0.50;0.50;;;9.10;99.90;;;;;;5053332;28;20197;-67
2022/09/16 05:38:38;;;;;;;0.60;0.60;;;9.10;99.90;;;;;;5071189;28;20197;-67
2022/09/16 05:41:04;;;;;;;0.60;0.60;;;9.10;99.90;;;;;;5053395;28;20208;-67
2022/09/16 05:43:31;;;;;;;0.60;0.60;;;9.10;99.90;;;;;;5053187;28;20201;-68
2022/09/16 05:45:57;;;;;;;0.70;0.70;;;9.10;99.90;;;;;;5052752;28;20201;-68
2022/09/16 05:48:24;;;;;;;0.60;0.60;;;9.10;99.90;;;;;;5053091;28;20534;-68
2022/09/16 05:50:55;;;;;;;0.60;0.60;;;9.10;99.90;;;;;;5071269;28;20622;-67
2022/09/16 05:53:22;;;;;;;0.60;0.60;;;9.20;99.90;;;;;;5067256;28;20195;-67
2022/09/16 05:56:01;;;;;;;0.60;0.60;;;9.20;99.90;;;;;;5051164;28;20190;-67
2022/09/16 05:58:28;;;;;;;0.60;0.60;;;9.20;99.90;;;;;;5051038;28;20603;-67
2022/09/16 06:01:12;;;;;;;0.70;0.70;;;9.20;99.90;;;;;;5033160;28;20680;-68
2022/09/16 06:03:40;;;;;;;0.55;0.55;;;9.10;99.90;;;;;;5051074;28;20200;-68
2022/09/16 06:06:26;;;;;;;0.60;0.60;;;9.20;99.90;;;;;;5033183;28;20205;-68
2022/09/16 06:08:53;;;;;;;0.60;0.60;;;9.20;99.90;;;;;;5051112;28;20192;-68
2022/09/16 06:11:19;;;;;;;0.60;0.60;;;9.20;99.90;;;;;;5051220;28;20209;-69
2022/09/16 06:13:45;;;;;;;0.60;0.60;;;9.20;99.90;;;;;;5050859;28;20233;-68
2022/09/16 06:16:13;;;;;;;0.60;0.60;;;9.20;99.90;;;;;;5039138;28;20215;-68
2022/09/16 06:18:39;;;;;;;0.60;0.60;;;9.20;99.90;;;;;;5070818;28;20671;-68
2022/09/16 06:21:07;;;;;;;0.60;0.60;;;9.30;99.90;;;;;;5052902;28;20287;-68
2022/09/16 06:23:33;;;;;;;0.60;0.60;;;9.40;99.90;;;;;;5070714;28;20197;-69
2022/09/16 06:26:01;;;;;;;0.50;0.50;;;9.50;99.90;;;;;;5070877;28;20237;-68
2022/09/16 06:28:27;;;;;;;0.52;0.52;;;9.70;99.90;;;;;;5070746;28;20264;-67
2022/09/16 06:31:14;;;;;;;0.60;0.60;;;9.80;99.90;;;;;;5070811;28;20280;-68
2022/09/16 06:33:40;;;;;;;0.60;0.60;;;10.00;99.90;;;;;;5052762;28;20564;-68
2022/09/16 06:36:08;;;;;;;0.60;0.60;;;10.20;99.90;;;;;;5070958;28;20246;-68
2022/09/16 06:38:35;;;;;;;0.60;0.60;;;10.30;99.90;;;;;;5070609;28;20193;-68
2022/09/16 06:41:12;;;;;;;0.60;0.60;;;10.40;99.90;;;;;;5052720;28;20204;-68
2022/09/16 06:43:38;;;;;;;0.60;0.60;;;10.40;99.90;;;;;;5053552;28;20260;-68
2022/09/16 06:46:12;;;;;;;0.63;0.63;;;10.30;99.90;;;;;;5074605;28;20205;-68
2022/09/16 06:48:39;;;;;;;0.60;0.60;;;10.30;99.90;;;;;;5074234;28;20192;-68
2022/09/16 06:51:18;;;;;;;0.60;0.60;;;10.40;99.90;;;;;;5056300;28;20203;-68
2022/09/16 06:53:45;;;;;;;0.50;0.50;;;10.50;99.90;;;;;;5067337;28;20284;-67
2022/09/16 06:56:13;;;;;;;0.60;0.60;;;10.60;99.90;;;;;;5054268;28;20652;-67
2022/09/16 06:58:41;;;;;;;0.50;0.50;;;10.90;99.90;;;;;;5054123;28;20205;-67
2022/09/16 07:01:11;;;;;;;0.60;0.60;;;11.10;99.90;;;;;;5036445;28;20201;-68
2022/09/16 07:03:39;;;;;;;0.55;0.55;;;11.40;99.90;;;;;;5053999;28;20565;-68
2022/09/16 07:06:06;;;;;;;0.50;0.50;;;11.60;99.90;;;;;;5053995;28;20270;-68
2022/09/16 07:08:34;;;;;;;0.50;0.50;;;11.80;99.90;;;;;;5053883;28;20196;-68
2022/09/16 07:11:07;;;;;;;0.60;0.60;;;12.00;99.90;;;;;;5054179;28;20185;-67
2022/09/16 07:13:33;;;;;;;0.90;0.85;;;12.00;99.90;;;;;;5068813;28;20221;-67
2022/09/16 07:16:04;;;;;;;0.50;0.50;;;12.10;99.90;;;;;;5055984;28;20203;-68
2022/09/16 07:18:32;;;;;;;0.50;0.50;;;12.20;99.90;;;;;;5073612;28;20193;-68
2022/09/16 07:21:15;;;;;;;0.50;0.50;;;12.40;99.90;;;;;;5073856;28;20294;-68
2022/09/16 07:23:41;;;;;;;0.47;0.47;;;12.50;99.90;;;;;;5073684;28;20192;-68
2022/09/16 07:26:09;;;;;;;0.50;0.50;;;12.60;99.90;;;;;;5073700;28;20223;-68
2022/09/16 07:28:36;;;;;;;0.50;0.50;;;12.80;99.90;;;;;;5073520;28;20189;-69
2022/09/16 07:31:09;;;;;;;0.50;0.50;;;13.00;99.90;;;;;;5055616;28;20264;-69
2022/09/16 07:33:37;;;;;;;0.50;0.50;;;13.10;99.90;;;;;;5073350;28;20200;-67
2022/09/16 07:36:04;;;;;;;0.50;0.50;;;13.10;99.90;;;;;;5073542;28;20191;-68
2022/09/16 07:38:30;;;;;;;0.50;0.50;;;13.20;99.90;;;;;;5073122;28;20597;-67
2022/09/16 07:41:06;;;;;;;0.40;0.40;;;13.30;99.90;;;;;;5072141;28;20197;-68
2022/09/16 07:43:32;;;;;;;0.40;0.40;;;13.30;99.90;;;;;;5073224;28;20208;-68
2022/09/16 07:45:58;;;;;;;0.40;0.40;;;13.30;99.90;;;;;;5073145;28;20220;-68
2022/09/16 07:48:24;;;;;;;0.47;0.47;;;13.30;99.90;;;;;;5073165;28;20197;-68
2022/09/16 07:50:58;;;;;;;0.40;0.40;;;13.30;99.90;;;;;;5073209;28;20276;-68
2022/09/16 07:53:26;;;;;;;0.47;0.47;;;13.30;99.90;;;;;;5067682;28;20189;-68
2022/09/16 07:55:55;;;;;;;0.50;0.50;;;13.30;99.90;;;;;;5051083;28;20233;-69
2022/09/16 07:58:21;;;;;;;0.40;0.40;;;13.20;99.90;;;;;;5064896;28;20207;-68
2022/09/16 08:00:48;;;;;;;0.40;0.40;;;13.10;99.90;;;;;;5073062;28;20598;-68
2022/09/16 08:03:14;;;;;;;0.50;0.50;;;13.10;99.90;;;;;;5073080;28;20185;-68
2022/09/16 08:05:40;;;;;;;0.50;0.50;;;13.20;99.90;;;;;;5072744;28;20546;-68
2022/09/16 08:08:06;;;;;;;0.50;0.50;;;13.30;99.90;;;;;;5054797;28;20284;-68
2022/09/16 08:10:32;;;;;;;0.60;0.60;;;13.40;99.90;;;;;;5072836;28;20276;-68
2022/09/16 08:12:57;;;;;;;0.50;0.50;;;13.30;99.90;;;;;;5072675;28;20224;-68
2022/09/16 08:15:23;;;;;;;0.50;0.50;;;13.10;99.90;;;;;;5072494;28;20204;-68
2022/09/16 08:17:49;;;;;;;0.40;0.40;;;13.10;99.90;;;;;;5072720;28;20197;-68
2022/09/16 08:20:14;;;;;;;0.40;0.40;;;13.30;99.90;;;;;;5072594;28;20197;-68
2022/09/16 08:22:40;;;;;;;0.50;0.50;;;13.50;99.90;;;;;;5072467;28;20205;-68
2022/09/16 08:25:06;;;;;;;0.40;0.40;;;13.60;99.90;;;;;;5072487;28;20691;-68
2022/09/16 08:27:35;;;;;;;0.40;0.40;;;13.60;99.90;;;;;;5072338;28;20199;-69
2022/09/16 08:30:02;;;;;;;0.40;0.40;;;13.80;99.90;;;;;;5072543;28;20219;-68
2022/09/16 08:32:28;;;;;;;0.40;0.40;;;14.10;99.90;;;;;;5072225;28;20691;-68
2022/09/16 08:34:53;;;;;;;0.40;0.40;;;14.20;99.90;;;;;;5072139;28;20197;-68
2022/09/16 08:37:19;;;;;;;0.40;0.40;;;14.50;99.90;;;;;;5072343;28;20220;-69
2022/09/16 08:39:47;;;;;;;1.80;1.35;;;14.80;99.90;;;;;;5072365;28;20193;-68
2022/09/16 08:42:28;;;;;;;0.40;0.40;;;14.80;99.90;;;;;;5072236;28;20197;-68
2022/09/16 08:45:19;;;;;;;0.40;0.40;;;14.70;99.90;;;;;;5072133;28;20232;-68
2022/09/16 08:48:09;;;;;;;0.40;0.40;;;14.80;99.90;;;;;;5072276;28;20211;-68
2022/09/16 08:50:39;;;;;;;0.50;0.50;;;14.60;99.90;;;;;;5072065;28;20185;-68
2022/09/16 08:53:30;;;;;;;0.40;0.40;;;14.60;99.90;;;;;;5070442;28;20667;-69
2022/09/16 08:55:56;;;;;;;0.40;0.40;;;14.70;99.90;;;;;;5047770;28;20229;-69
2022/09/16 08:58:25;;;;;;;0.30;0.30;;;14.80;99.90;;;;;;5051883;28;20189;-69
2022/09/16 09:00:59;;;;;;;0.88;0.50;;;14.90;99.90;;;;;;5051935;28;20409;-69
2022/09/16 09:03:40;;;;;;;0.40;0.40;;;15.00;99.90;;;;;;5050526;28;20565;-68
2022/09/16 09:06:44;;;;;;;0.40;0.40;;;15.10;99.90;;;;;;5049138;28;20227;-69
2022/09/16 09:09:28;;;;;;;0.40;0.40;;;15.00;99.90;;;;;;5027288;28;20207;-68
2022/09/16 09:12:13;;;;;;;0.40;0.40;;;15.10;99.90;;;;;;5072239;28;20245;-68
2022/09/16 09:14:47;;;;;;;0.40;0.40;;;15.50;99.90;;;;;;5090625;28;20786;-69
2022/09/16 09:17:51;;;;;;;0.32;0.32;;;15.60;99.90;;;;;;5091911;28;20245;-69
2022/09/16 09:20:29;;;;;;;0.40;0.40;;;15.60;99.90;;;;;;5073762;28;20206;-69
2022/09/16 09:22:58;;;;;;;0.40;0.40;;;15.70;99.90;;;;;;5091872;28;20192;-69
2022/09/16 09:25:36;;;;;;;0.40;0.40;;;15.60;99.90;;;;;;5091550;28;20196;-69
2022/09/16 09:28:22;;;;;;;0.40;0.40;;;15.50;99.90;;;;;;5091608;28;20196;-69
2022/09/16 09:31:10;;;;;;;0.40;0.40;;;15.40;99.90;;;;;;5084233;28;20219;-68
2022/09/16 09:33:57;;;;;;;0.40;0.40;;;15.30;99.90;;;;;;5071261;28;20276;-70
2022/09/16 09:36:46;;;;;;;0.30;0.30;;;15.20;99.90;;;;;;5071338;28;20184;-68
2022/09/16 09:39:15;;;;;;;0.40;0.40;;;15.10;99.90;;;;;;5060593;28;20224;-69
2022/09/16 09:41:53;;;;;;;0.40;0.40;;;15.20;99.90;;;;;;5071252;28;20594;-66
2022/09/16 09:44:41;;;;;;;0.40;0.40;;;15.20;99.90;;;;;;5071269;28;20205;-67
2022/09/16 09:47:25;;;;;;;0.40;0.40;;;15.30;99.90;;;;;;5071216;28;20680;-67
2022/09/16 09:49:55;;;;;;;0.30;0.30;;;15.40;99.90;;;;;;5071233;28;20196;-67
2022/09/16 09:52:44;;;;;;;0.35;0.35;;;15.50;99.90;;;;;;5071121;28;20531;-68
2022/09/16 09:55:17;;;;;;;0.40;0.40;;;15.50;99.90;;;;;;5060191;28;20212;-67
2022/09/16 09:57:59;;;;;;;0.40;0.40;;;15.60;99.90;;;;;;5071266;28;20197;-68
2022/09/16 10:00:24;;;;;;;0.40;0.40;;;15.70;99.90;;;;;;5071278;28;20279;-67
2022/09/16 10:02:50;;;;;;;0.40;0.40;;;15.90;99.90;;;;;;5070939;28;20240;-67
2022/09/16 10:05:27;;;;;;;0.30;0.30;;;16.10;99.90;;;;;;5071157;28;20408;-67
2022/09/16 10:07:59;;;;;;;0.40;0.40;;;16.10;99.90;;;;;;5074995;28;20196;-68
2022/09/16 10:10:28;;;;;;;0.30;0.30;;;15.90;99.90;;;;;;5091341;28;20183;-67
2022/09/16 10:12:54;;;;;;;0.30;0.30;;;15.70;99.90;;;;;;5090987;28;20220;-68
2022/09/16 10:15:30;;;;;;;0.40;0.40;;;15.70;99.90;;;;;;5091123;28;20667;-68
2022/09/16 10:17:59;;;;;;;0.85;0.50;;;15.50;99.90;;;;;;5092114;28;20188;-68
2022/09/16 10:20:31;;;;;;;0.35;0.35;;;15.60;99.90;;;;;;5095092;28;20283;-68
2022/09/16 10:23:12;;;;;;;0.30;0.30;;;16.10;99.90;;;;;;5095174;28;20270;-68
2022/09/16 10:25:39;;;;;;;0.30;0.30;;;16.40;99.90;;;;;;5094856;28;20208;-68
2022/09/16 10:28:18;;;;;;;0.40;0.40;;;16.40;99.90;;;;;;5083502;28;20676;-68
2022/09/16 10:30:48;;;;;;;0.50;0.50;;;16.40;99.90;;;;;;5074625;28;20188;-68
2022/09/16 10:33:28;;;;;;;0.30;0.30;;;16.50;99.90;;;;;;5074743;28;20215;-69
2022/09/16 10:36:01;;;;;;;0.30;0.30;;;16.40;99.90;;;;;;5073304;28;20295;-68
2022/09/16 10:38:34;;;;;;;0.30;0.30;;;16.40;99.90;;;;;;5056426;28;20230;-68
2022/09/16 10:41:18;;;;;;;0.40;0.40;;;16.40;99.90;;;;;;5073290;28;20559;-68
2022/09/16 10:44:12;;;;;;;0.40;0.40;;;16.20;99.90;;;;;;5074403;28;20200;-67
2022/09/16 10:46:50;;;;;;;0.32;0.32;;;16.00;99.90;;;;;;5074291;28;20201;-67
2022/09/16 10:49:19;;;;;;;0.40;0.40;;;15.90;99.90;;;;;;5074371;28;20268;-68
2022/09/16 10:51:45;;;;;;;0.30;0.30;;;15.90;99.90;;;;;;5056253;28;20559;-67
2022/09/16 10:54:24;;;;;;;0.40;0.40;;;16.00;99.90;;;;;;5063769;28;20197;-68
2022/09/16 10:56:51;;;;;;;0.40;0.40;;;15.90;99.90;;;;;;5037421;28;20193;-68
2022/09/16 10:59:17;;;;;;;0.32;0.32;;;15.70;99.90;;;;;;5074262;28;20223;-68
2022/09/16 11:02:16;;;;;;;0.30;0.30;;;15.70;99.90;;;;;;5055982;28;20200;-69
2022/09/16 11:05:11;;;;;;;0.35;0.35;;;16.00;99.90;;;;;;5073723;28;20196;-67
2022/09/16 11:07:43;;;;;;;0.30;0.30;;;16.10;99.90;;;;;;5056077;28;20554;-68
2022/09/16 11:10:15;;;;;;;0.30;0.30;;;16.20;99.90;;;;;;5074041;28;20189;-68
2022/09/16 11:12:46;;;;;;;0.30;0.30;;;16.20;99.90;;;;;;5073711;28;20688;-68
2022/09/16 11:15:32;;;;;;;0.30;0.30;;;16.20;99.90;;;;;;5074067;28;20205;-68
2022/09/16 11:18:10;;;;;;;0.32;0.32;;;16.10;99.90;;;;;;5073545;28;20212;-69
2022/09/16 11:21:03;;;;;;;0.30;0.30;;;16.00;99.90;;;;;;5055735;28;20676;-68
2022/09/16 11:23:45;;;;;;;0.30;0.30;;;15.90;99.90;;;;;;5055292;28;20291;-69
2022/09/16 11:26:34;;;;;;;0.35;0.35;;;16.00;99.90;;;;;;5073890;28;20601;-68
2022/09/16 11:29:14;;;;;;;0.30;0.30;;;16.00;99.90;;;;;;5073394;28;20184;-68
2022/09/16 11:32:08;;;;;;;0.30;0.30;;;16.20;99.90;;;;;;5072963;28;20196;-68
2022/09/16 11:34:49;;;;;;;0.30;0.30;;;16.30;99.90;;;;;;5072214;28;20250;-67
2022/09/16 11:37:23;;;;;;;0.30;0.30;;;16.20;99.90;;;;;;5073563;28;20659;-68
2022/09/16 11:40:00;;;;;;;0.38;0.38;;;16.20;99.90;;;;;;5073559;28;20234;-67
2022/09/16 11:42:33;;;;;;;0.43;0.43;;;16.20;99.90;;;;;;5073357;28;20566;-68
2022/09/16 11:45:04;;;;;;;0.40;0.40;;;16.10;99.90;;;;;;5055329;28;20232;-68
2022/09/16 11:47:55;;;;;;;0.40;0.40;;;16.30;99.90;;;;;;5072988;28;20242;-68
2022/09/16 11:50:26;;;;;;;0.30;0.30;;;16.30;99.90;;;;;;5071839;28;20193;-68
2022/09/16 11:53:26;;;;;;;0.30;0.30;;;16.40;99.90;;;;;;5073255;28;20250;-68
2022/09/16 11:56:16;;;;;;;0.30;0.30;;;16.40;99.90;;;;;;5053332;28;20197;-68
2022/09/16 11:59:04;;;;;;;0.30;0.30;;;16.40;99.90;;;;;;5053152;28;20194;-67
2022/09/16 12:01:36;;;;;;;0.30;0.30;;;16.20;99.90;;;;;;5055051;28;20213;-68
2022/09/16 12:04:20;;;;;;;0.30;0.30;;;16.40;99.90;;;;;;5073096;28;20714;-68
2022/09/16 12:07:02;;;;;;;0.30;0.30;;;16.30;99.90;;;;;;5072828;28;20220;-68
2022/09/16 12:09:45;;;;;;;0.30;0.30;;;16.40;99.90;;;;;;5073195;28;20192;-68
2022/09/16 12:12:16;;;;;;;0.20;0.20;;;16.50;99.90;;;;;;5072969;28;20228;-67
2022/09/16 12:14:47;;;;;;;0.30;0.30;;;16.80;99.90;;;;;;5054616;28;20236;-66
2022/09/16 12:17:19;;;;;;;0.30;0.30;;;16.70;99.90;;;;;;5054817;28;20203;-67
2022/09/16 12:20:32;;;;;;;0.30;0.30;;;16.70;99.90;;;;;;5072788;28;20663;-66
2022/09/16 12:23:07;;;;;;;0.30;0.30;;;16.70;99.90;;;;;;4991064;28;20805;-67
2022/09/16 12:25:41;;;;;;;0.40;0.40;;;16.90;99.90;;;;;;4990849;28;20702;-67
2022/09/16 12:28:25;;;;;;;0.30;0.30;;;16.90;99.90;;;;;;4991216;28;20196;-67
2022/09/16 12:31:16;;;;;;;0.30;0.30;;;17.00;99.90;;;;;;4990815;28;20295;-67
2022/09/16 12:34:00;;;;;;;0.30;0.30;;;16.90;99.90;;;;;;4990672;28;20738;-68
2022/09/16 12:36:35;;;;;;;0.30;0.30;;;17.10;99.90;;;;;;4990585;28;20200;-68
2022/09/16 12:39:00;;;;;;;0.30;0.30;;;17.30;99.90;;;;;;4997604;28;20693;-67
2022/09/16 12:42:29;;;;;;;0.22;0.22;;;17.20;99.90;;;;;;5009823;28;20286;-68
2022/09/16 12:45:25;;;;;;;0.30;0.30;;;17.10;99.90;;;;;;4951476;29;20259;-68
2022/09/16 12:48:41;;;;;;;0.30;0.30;;;16.80;99.90;;;;;;4951881;29;20197;-67
2022/09/16 12:51:16;;;;;;;0.40;0.40;;;16.60;99.90;;;;;;4879688;29;20224;-68
2022/09/16 12:54:08;;;;;;;0.30;0.30;;;16.60;99.90;;;;;;4875820;29;20284;-67
2022/09/16 12:56:58;;;;;;;0.30;0.30;;;16.60;99.90;;;;;;4883504;29;20218;-67
2022/09/16 12:59:24;;;;;;;0.30;0.30;;;16.80;99.90;;;;;;4913232;29;20292;-68
2022/09/16 13:01:55;;;;;;;0.30;0.30;;;17.00;99.90;;;;;;4913422;29;20289;-67
2022/09/16 13:04:28;;;;;;;0.30;0.30;;;17.00;99.90;;;;;;4913047;29;20623;-67
2022/09/16 13:06:57;;;;;;;0.30;0.30;;;17.10;99.90;;;;;;4913363;29;20244;-67
2022/09/16 13:09:32;;;;;;;0.30;0.30;;;17.00;99.90;;;;;;4913019;29;20427;-67
2022/09/16 13:12:04;;;;;;;0.30;0.30;;;17.00;99.90;;;;;;4913040;29;20205;-67
2022/09/16 13:14:45;;;;;;;0.40;0.40;;;17.10;99.90;;;;;;4922982;28;20747;-67
2022/09/16 13:17:11;;;;;;;0.30;0.30;;;17.40;99.90;;;;;;4983329;28;20290;-68
2022/09/16 13:19:45;;;;;;;0.20;0.20;;;17.60;99.90;;;;;;4989783;28;20235;-67
2022/09/16 13:22:29;;;;;;;0.20;0.20;;;17.80;99.90;;;;;;4989918;28;20227;-67
2022/09/16 13:25:20;;;;;;;0.30;0.30;;;17.80;99.90;;;;;;4998197;28;20263;-67